Time;durP1;ratioP1;P1;durP2;ratioP2;P2;SDS_P1;SDS_P2;PMS_P1;PMS_P2;Temp;Humidity;BMP_temperature;BMP_pressure;BME280_temperature;BME280_humidity;BME280_pressure;Samples;Min_cycle;Max_cycle;Signal;HPM_P1;HPM_P2
2021/11/19 00:00:49;;;;;;;11.52;5.82;;;;;;;9.15;55.83;101300.59;4423728;32;33298;-90
2021/11/19 00:03:32;;;;;;;11.85;5.95;;;;;;;9.23;55.77;101303.22;4407658;32;33729;-90
2021/11/19 00:06:11;;;;;;;10.80;6.25;;;;;;;9.22;55.93;101305.81;4427358;32;33067;-91
2021/11/19 00:08:52;;;;;;;11.02;6.45;;;;;;;9.32;55.50;101308.41;4415346;32;34479;-90
2021/11/19 00:11:28;;;;;;;11.10;6.20;;;;;;;9.45;55.11;101321.41;4422372;32;34025;-92
2021/11/19 00:14:05;;;;;;;9.48;5.57;;;;;;;9.34;55.30;101317.06;4414926;32;32768;-91
2021/11/19 00:16:37;;;;;;;;;;;;;;;9.27;55.31;101307.53;4439466;32;32649;-91
2021/11/19 00:19:19;;;;;;;10.55;5.80;;;;;;;9.30;55.38;101314.47;4429591;32;34750;-91
2021/11/19 00:21:56;;;;;;;12.00;6.72;;;;;;;9.18;55.58;101303.19;4422323;32;33227;-90
2021/11/19 00:24:28;;;;;;;10.85;6.07;;;;;;;9.02;56.03;101294.53;4425755;32;33378;-91
2021/11/19 00:27:02;;;;;;;10.88;6.15;;;;;;;9.33;54.98;101294.53;4435556;32;34416;-90
2021/11/19 00:29:33;;;;;;;10.05;6.05;;;;;;;9.41;54.86;101291.06;4422733;32;34303;-91
2021/11/19 00:32:10;;;;;;;9.68;6.20;;;;;;;9.08;55.78;101280.69;4436150;32;34130;-89
2021/11/19 00:34:48;;;;;;;11.00;6.12;;;;;;;8.88;56.47;101282.41;4422813;32;33738;-90
2021/11/19 00:37:23;;;;;;;10.45;5.97;;;;;;;8.97;56.13;101270.25;4417315;32;33765;-90
2021/11/19 00:40:02;;;;;;;10.95;5.87;;;;;;;9.19;55.30;101283.28;4421212;32;34392;-91
2021/11/19 00:42:32;;;;;;;11.15;6.25;;;;;;;9.34;54.77;101287.59;4411943;32;33970;-90
2021/11/19 00:45:04;;;;;;;;;;;;;;;9.24;55.11;101286.75;4409087;32;32277;-90
2021/11/19 00:47:40;;;;;;;10.68;5.60;;;;;;;9.45;54.43;101283.25;4395883;32;33455;-90
2021/11/19 00:50:15;;;;;;;10.80;5.80;;;;;;;9.40;54.33;101278.91;4410730;32;34446;-90
2021/11/19 00:52:50;;;;;;;15.85;5.95;;;;;;;9.14;54.99;101280.66;4417529;32;33811;-90
2021/11/19 00:55:28;;;;;;;10.25;6.10;;;;;;;8.91;55.96;101272.00;4422467;32;34074;-88
2021/11/19 00:58:04;;;;;;;9.80;5.85;;;;;;;9.02;55.90;101260.72;4422693;32;32695;-90
2021/11/19 01:00:45;;;;;;;9.70;6.03;;;;;;;9.09;55.66;101255.53;4398392;32;33658;-89
2021/11/19 01:03:21;;;;;;;11.95;6.62;;;;;;;9.15;55.52;101260.75;4411024;32;33454;-89
2021/11/19 01:05:53;;;;;;;9.68;6.18;;;;;;;8.99;56.16;101265.09;4410450;32;33041;-89
2021/11/19 01:08:41;;;;;;;10.38;6.50;;;;;;;9.08;56.05;101257.28;4398242;32;33310;-89
2021/11/19 01:11:20;;;;;;;9.70;6.30;;;;;;;9.12;55.63;101259.00;4398912;32;33210;-89
2021/11/19 01:14:01;;;;;;;10.48;6.07;;;;;;;9.19;55.52;101260.72;4410337;32;33668;-90
2021/11/19 01:16:38;;;;;;;11.90;7.03;;;;;;;8.90;55.89;101265.94;4410183;32;33845;-89
2021/11/19 01:19:15;;;;;;;9.98;6.20;;;;;;;9.01;55.70;101265.94;4419359;32;32831;-89
2021/11/19 01:21:53;;;;;;;12.23;6.68;;;;;;;9.21;55.11;101268.53;4425408;32;35330;-87
2021/11/19 01:24:24;;;;;;;12.05;6.50;;;;;;;9.15;55.43;101261.59;4424632;32;34075;-89
2021/11/19 01:27:01;;;;;;;13.00;6.90;;;;;;;9.24;55.33;101270.25;4410409;32;32487;-89
2021/11/19 01:29:37;;;;;;;11.73;6.25;;;;;;;9.17;55.79;101272.88;4411984;32;34633;-90
2021/11/19 01:32:14;;;;;;;11.82;6.47;;;;;;;8.96;56.35;101262.47;4398940;32;34494;-89
2021/11/19 01:34:50;;;;;;;12.77;7.68;;;;;;;9.00;56.47;101262.47;4398287;32;33292;-90
2021/11/19 01:37:26;;;;;;;12.32;7.10;;;;;;;9.22;55.65;101267.66;4398573;32;32763;-90
2021/11/19 01:40:04;;;;;;;14.77;7.30;;;;;;;9.11;55.80;101267.66;4423819;32;33267;-89
2021/11/19 01:42:44;;;;;;;13.43;7.40;;;;;;;9.25;55.32;101259.84;4411740;32;32885;-88
2021/11/19 01:45:17;;;;;;;12.50;7.20;;;;;;;9.26;55.44;101264.19;4397702;32;32526;-89
2021/11/19 01:47:56;;;;;;;12.32;7.57;;;;;;;9.57;54.62;101251.13;4409481;32;32061;-90
2021/11/19 01:50:37;;;;;;;11.25;6.65;;;;;;;9.18;55.58;101245.97;4411284;32;34130;-91
2021/11/19 01:53:19;;;;;;;13.65;7.75;;;;;;;9.34;55.14;101240.78;4408950;32;33219;-90
2021/11/19 01:56:04;;;;;;;13.23;7.35;;;;;;;9.43;54.72;101234.69;4422894;32;33484;-90
2021/11/19 01:58:41;;;;;;;16.35;8.00;;;;;;;9.52;54.53;101225.12;4410422;32;33947;-89
2021/11/19 02:01:27;;;;;;;14.02;7.60;;;;;;;9.59;54.22;101228.56;4397411;32;32910;-89
2021/11/19 02:04:06;;;;;;;14.05;7.50;;;;;;;9.53;54.24;101221.66;4410340;32;33287;-89
2021/11/19 02:06:40;;;;;;;12.60;7.43;;;;;;;9.53;54.15;101224.25;4397097;32;33399;-89
2021/11/19 02:09:50;;;;;;;12.35;7.72;;;;;;;9.60;54.28;101211.22;4409324;32;33348;-88
2021/11/19 02:12:27;;;;;;;15.02;6.80;;;;;;;10.02;53.03;101209.31;4409752;32;35122;-89
2021/11/19 02:15:15;;;;;;;12.02;7.62;;;;;;;9.73;53.88;101197.28;4422057;32;34395;-89
2021/11/19 02:17:52;;;;;;;15.25;8.07;;;;;;;9.91;53.51;101185.94;4398369;32;33123;-90
2021/11/19 02:20:30;;;;;;;13.18;6.68;;;;;;;9.68;54.10;101176.50;4409298;32;32678;-90
2021/11/19 02:23:23;;;;;;;14.73;7.53;;;;;;;9.84;53.78;101184.25;4397118;32;33891;-89
2021/11/19 02:25:58;;;;;;;13.80;6.78;;;;;;;10.07;53.22;101171.09;4395937;32;33923;-90
2021/11/19 02:28:34;;;;;;;11.52;6.90;;;;;;;10.07;53.29;101170.22;4409969;32;33618;-90
2021/11/19 02:31:22;;;;;;;13.68;7.55;;;;;;;9.80;53.98;101172.97;4422598;32;32804;-88
2021/11/19 02:33:56;;;;;;;12.25;6.57;;;;;;;9.99;53.03;101171.12;4409104;32;34131;-90
2021/11/19 02:36:39;;;;;;;15.63;7.95;;;;;;;9.64;54.08;101163.47;4421558;32;33756;-91
2021/11/19 02:39:17;;;;;;;13.77;8.02;;;;;;;9.61;54.09;101160.91;4421200;32;34003;-89
2021/11/19 02:42:00;;;;;;;13.30;7.25;;;;;;;9.55;54.43;101164.41;4409889;32;32498;-89
2021/11/19 02:44:38;;;;;;;13.07;8.00;;;;;;;9.58;54.59;101155.72;4425478;32;33471;-89
2021/11/19 02:47:16;;;;;;;12.23;7.32;;;;;;;9.63;55.30;101157.44;4412700;32;35000;-90
2021/11/19 02:49:50;;;;;;;14.40;8.18;;;;;;;9.76;55.58;101144.34;4413154;32;34238;-89
2021/11/19 02:52:38;;;;;;;14.32;7.95;;;;;;;9.88;55.52;101148.63;4412785;32;32875;-89
2021/11/19 02:55:16;;;;;;;12.07;6.43;;;;;;;10.04;55.26;101152.88;4437167;32;33817;-89
2021/11/19 02:57:46;;;;;;;13.27;7.70;;;;;;;10.06;54.87;101153.72;4441623;32;34843;-89
2021/11/19 03:00:28;;;;;;;14.82;7.87;;;;;;;9.80;55.70;101156.50;4425661;32;33980;-89
2021/11/19 03:03:00;;;;;;;14.32;8.18;;;;;;;10.02;55.45;101167.62;4412014;32;33067;-88
2021/11/19 03:05:33;;;;;;;11.70;7.28;;;;;;;9.78;56.32;101161.69;4425034;32;32955;-90
2021/11/19 03:08:02;;;;;;;11.00;7.07;;;;;;;9.89;56.46;101166.84;4412897;32;34536;-89
2021/11/19 03:10:36;;;;;;;13.82;7.75;;;;;;;9.95;56.55;101176.37;4424481;32;33812;-91
2021/11/19 03:13:07;;;;;;;15.40;9.02;;;;;;;9.82;57.35;101172.94;4417974;32;33687;-89
2021/11/19 03:15:43;;;;;;;14.15;8.50;;;;;;;9.79;57.52;101180.78;4421350;32;33298;-89
2021/11/19 03:18:20;;;;;;;12.52;7.85;;;;;;;9.68;57.86;101170.44;4424686;32;33023;-90
2021/11/19 03:21:00;;;;;;;13.55;7.50;;;;;;;10.06;56.62;101173.69;4424931;32;33868;-90
2021/11/19 03:23:31;;;;;;;14.55;8.02;;;;;;;9.98;56.51;101182.41;4421511;32;33047;-91
2021/11/19 03:26:01;;;;;;;12.75;7.65;;;;;;;9.67;57.71;101169.53;4409967;32;34834;-91
2021/11/19 03:28:38;;;;;;;14.13;7.82;;;;;;;9.74;57.53;101177.34;4437398;32;33953;-90
2021/11/19 03:31:09;;;;;;;13.23;7.70;;;;;;;9.65;57.95;101181.72;4423487;32;33040;-90
2021/11/19 03:33:41;;;;;;;14.93;8.70;;;;;;;9.54;58.00;101175.69;4413451;32;32929;-90
2021/11/19 03:36:14;;;;;;;15.00;8.95;;;;;;;9.66;57.49;101174.75;4425784;32;34137;-91
2021/11/19 03:38:56;;;;;;;16.45;9.57;;;;;;;9.55;57.91;101173.97;4439770;32;32695;-89
2021/11/19 03:41:31;;;;;;;15.25;9.15;;;;;;;9.55;58.08;101185.22;4439103;32;33370;-90
2021/11/19 03:44:16;;;;;;;16.40;9.05;;;;;;;9.82;57.44;101184.22;4425552;32;33379;-88
2021/11/19 03:46:54;;;;;;;16.70;9.85;;;;;;;9.78;57.50;101179.06;4441874;32;34898;-88
2021/11/19 03:49:30;;;;;;;16.33;9.60;;;;;;;9.72;57.67;101164.34;4438578;32;34045;-89
2021/11/19 03:52:11;;;;;;;16.55;10.20;;;;;;;9.89;57.00;101176.41;4429560;32;33469;-88
2021/11/19 03:54:48;;;;;;;15.18;9.73;;;;;;;9.79;57.58;101170.38;4441577;32;32978;-88
2021/11/19 03:57:21;;;;;;;16.30;9.52;;;;;;;9.93;57.15;101168.56;4427858;32;33917;-90
2021/11/19 04:00:03;;;;;;;16.70;11.23;;;;;;;10.02;56.96;101162.44;4440744;32;33764;-91
2021/11/19 04:02:43;;;;;;;16.80;9.98;;;;;;;10.00;56.88;101156.38;4439413;32;34201;-90
2021/11/19 04:05:14;;;;;;;18.65;11.25;;;;;;;9.66;57.65;101144.38;4428558;32;32762;-88
2021/11/19 04:07:42;;;;;;;18.10;10.43;;;;;;;9.57;57.99;101135.78;4436154;32;34129;-89
2021/11/19 04:10:16;;;;;;;16.75;10.00;;;;;;;9.40;58.25;101128.91;4428763;32;33466;-88
2021/11/19 04:12:50;;;;;;;15.63;9.43;;;;;;;9.46;57.85;101131.47;4440889;32;34219;-89
2021/11/19 04:15:29;;;;;;;19.62;10.57;;;;;;;9.60;57.33;101139.22;4440914;32;34142;-89
2021/11/19 04:17:59;;;;;;;15.75;9.55;;;;;;;9.45;57.91;101136.69;4413992;32;37160;-90
2021/11/19 04:20:33;;;;;;;15.30;9.88;;;;;;;9.71;57.18;101136.56;4424703;32;33540;-88
2021/11/19 04:23:06;;;;;;;16.33;9.90;;;;;;;9.74;57.17;101146.09;4425063;32;33189;-90
2021/11/19 04:25:40;;;;;;;18.87;10.18;;;;;;;9.80;56.97;101130.47;4413970;32;33434;-89
2021/11/19 04:28:08;;;;;;;18.55;10.00;;;;;;;9.59;57.73;101121.87;4410735;32;35210;-90
2021/11/19 04:30:43;;;;;;;18.12;10.35;;;;;;;9.49;57.98;101114.97;4424744;32;34573;-88
2021/11/19 04:33:20;;;;;;;19.58;10.77;;;;;;;8.95;59.09;101100.44;4411497;32;32765;-89
2021/11/19 04:35:59;;;;;;;21.25;10.65;;;;;;;9.43;57.93;101104.63;4424749;32;32633;-88
2021/11/19 04:38:35;;;;;;;16.40;9.95;;;;;;;9.41;57.87;101108.94;4412093;32;33731;-90
2021/11/19 04:41:05;;;;;;;17.87;10.40;;;;;;;9.62;57.35;101105.38;4411952;32;34488;-89
2021/11/19 04:43:36;;;;;;;16.80;10.23;;;;;;;9.67;57.19;101112.28;4424374;32;33107;-89
2021/11/19 04:46:14;;;;;;;19.50;9.65;;;;;;;9.64;57.38;101111.44;4427773;32;33787;-89
2021/11/19 04:48:47;;;;;;;17.33;10.65;;;;;;;9.75;57.14;101114.00;4439521;32;33083;-88
2021/11/19 04:51:24;;;;;;;17.10;10.45;;;;;;;9.45;57.83;101108.94;4425941;32;33861;-90
2021/11/19 04:53:56;;;;;;;16.58;11.23;;;;;;;9.66;57.35;101113.16;4412791;32;33664;-90
2021/11/19 04:56:32;;;;;;;18.12;10.38;;;;;;;9.25;58.58;101106.41;4426495;32;34318;-90
2021/11/19 04:59:09;;;;;;;20.27;11.15;;;;;;;9.26;58.63;101113.34;4439147;32;33364;-90
2021/11/19 05:01:46;;;;;;;17.85;11.15;;;;;;;9.56;57.70;101121.03;4411927;32;33291;-90
2021/11/19 05:04:16;;;;;;;16.50;10.15;;;;;;;9.78;57.07;101124.38;4426429;32;32538;-90
2021/11/19 05:07:04;;;;;;;17.40;10.15;;;;;;;9.71;57.24;101113.16;4430348;32;33213;-90
2021/11/19 05:09:34;;;;;;;17.27;10.35;;;;;;;9.79;57.08;101113.97;4423070;32;34097;-90
2021/11/19 05:12:10;;;;;;;20.55;11.43;;;;;;;10.01;56.34;101117.31;4406939;32;33539;-90
2021/11/19 05:14:49;;;;;;;18.45;11.10;;;;;;;9.61;57.66;101112.34;4438130;32;34000;-91
2021/11/19 05:17:23;;;;;;;17.67;11.45;;;;;;;9.64;57.59;101116.62;4427077;32;34469;-89
2021/11/19 05:19:56;;;;;;;16.05;10.43;;;;;;;9.65;57.64;101113.16;4428438;32;32779;-90
2021/11/19 05:22:29;;;;;;;18.30;11.57;;;;;;;9.57;57.73;101108.00;4440844;32;34110;-89
2021/11/19 05:25:03;;;;;;;19.08;10.82;;;;;;;9.63;57.93;101113.19;4427682;32;33139;-90
2021/11/19 05:27:37;;;;;;;16.48;10.18;;;;;;;9.71;57.60;101109.69;4439621;32;33586;-90
2021/11/19 05:30:09;;;;;;;19.33;11.38;;;;;;;9.74;57.61;101112.28;4439471;32;34428;-91
2021/11/19 05:32:39;;;;;;;16.05;9.48;;;;;;;9.75;57.45;101101.84;4426281;32;34064;-90
2021/11/19 05:35:09;;;;;;;17.52;10.05;;;;;;;9.99;56.80;101110.38;4426624;32;33748;-90
2021/11/19 05:37:43;;;;;;;18.33;10.50;;;;;;;9.81;57.34;101111.34;4429037;32;33519;-91
2021/11/19 05:40:21;;;;;;;17.25;9.98;;;;;;;9.92;56.90;101111.28;4428186;32;34080;-89
2021/11/19 05:42:52;;;;;;;15.88;9.48;;;;;;;9.92;56.76;101117.38;4426744;32;33198;-90
2021/11/19 05:45:27;;;;;;;19.17;10.80;;;;;;;10.11;56.26;101114.66;4413953;32;34791;-88
2021/11/19 05:48:00;;;;;;;17.17;9.95;;;;;;;9.98;56.77;101113.84;4423751;32;33242;-88
2021/11/19 05:50:32;;;;;;;17.02;10.27;;;;;;;10.03;56.65;101117.28;4426272;32;33611;-87
2021/11/19 05:53:02;;;;;;;;;;;;;;;10.01;56.68;101104.28;4436715;32;33362;-86
2021/11/19 05:55:34;;;;;;;15.80;8.93;;;;;;;10.02;56.12;101105.16;4409531;32;32868;-87
2021/11/19 05:58:02;;;;;;;;;;;;;;;10.05;56.00;101112.06;4435417;32;32794;-87
2021/11/19 06:00:39;;;;;;;13.68;7.40;;;;;;;10.07;55.74;101105.13;4424177;32;32788;-87
2021/11/19 06:03:09;;;;;;;12.77;6.95;;;;;;;9.80;56.08;101094.87;4435043;32;34813;-85
2021/11/19 06:05:39;;;;;;;12.20;7.47;;;;;;;9.66;56.46;101094.09;4434362;32;33845;-85
2021/11/19 06:08:09;;;;;;;14.70;8.15;;;;;;;9.96;55.54;101098.25;4438032;32;33487;-87
2021/11/19 06:10:56;;;;;;;12.90;8.13;;;;;;;9.34;56.91;101103.75;4426178;32;32622;-88
2021/11/19 06:13:38;;;;;;;12.57;7.57;;;;;;;9.52;56.89;101099.38;4413037;32;33143;-87
2021/11/19 06:16:10;;;;;;;13.70;8.00;;;;;;;9.63;56.48;101102.78;4437699;32;33787;-87
2021/11/19 06:18:43;;;;;;;11.88;7.50;;;;;;;9.82;55.68;101100.06;4437828;32;32300;-88
2021/11/19 06:21:25;;;;;;;15.02;8.90;;;;;;;9.61;56.15;101101.94;4438033;32;33815;-88
2021/11/19 06:24:01;;;;;;;12.35;7.50;;;;;;;9.77;55.97;101094.03;4437613;32;33301;-86
2021/11/19 06:26:30;;;;;;;10.88;6.78;;;;;;;9.58;56.49;101085.47;4428547;32;34018;-86
2021/11/19 06:29:06;;;;;;;12.52;7.22;;;;;;;9.79;55.77;101085.34;4409610;32;33350;-87
2021/11/19 06:31:47;;;;;;;14.20;6.90;;;;;;;9.08;58.02;101083.09;4409987;32;32932;-87
2021/11/19 06:34:18;;;;;;;12.68;7.60;;;;;;;9.53;56.87;101088.06;4422732;32;33414;-87
2021/11/19 06:36:47;;;;;;;14.38;7.37;;;;;;;9.58;56.68;101088.91;4436862;32;32768;-87
2021/11/19 06:39:41;;;;;;;;;;;;;;;9.76;56.12;101080.16;4420154;32;32746;-87
2021/11/19 06:42:11;;;;;;;14.00;7.87;;;;;;;9.90;55.72;101069.62;4434372;32;33100;-87
2021/11/19 06:44:42;;;;;;;15.67;8.10;;;;;;;9.74;56.21;101081.88;4422720;32;33682;-87
2021/11/19 06:47:11;;;;;;;14.45;8.35;;;;;;;9.84;55.98;101080.97;4400385;32;34239;-86
2021/11/19 06:49:41;;;;;;;12.48;7.20;;;;;;;9.84;56.15;101080.13;4404583;32;32473;-89
2021/11/19 06:52:11;;;;;;;14.05;8.00;;;;;;;10.00;55.65;101066.09;4425390;32;33144;-87
2021/11/19 06:54:41;;;;;;;12.70;7.20;;;;;;;9.95;55.63;101067.87;4425062;32;34071;-85
2021/11/19 06:57:11;;;;;;;12.23;8.20;;;;;;;10.14;55.48;101080.75;4429405;32;33932;-87
2021/11/19 06:59:41;;;;;;;14.50;8.27;;;;;;;10.16;55.33;101074.66;4437803;32;33755;-86
2021/11/19 07:02:10;;;;;;;13.40;7.35;;;;;;;10.30;54.83;101077.16;4424134;32;33291;-87
2021/11/19 07:04:40;;;;;;;15.50;7.70;;;;;;;10.50;54.38;101077.03;4431498;32;33745;-87
2021/11/19 07:07:09;;;;;;;11.95;7.10;;;;;;;10.32;54.93;101078.00;4434068;32;33987;-85
2021/11/19 07:09:41;;;;;;;13.20;7.90;;;;;;;10.38;54.96;101079.72;4428549;32;32144;-87
2021/11/19 07:12:14;;;;;;;12.80;7.43;;;;;;;10.08;55.85;101072.97;4412253;32;33390;-86
2021/11/19 07:14:44;;;;;;;13.13;7.20;;;;;;;10.38;55.29;101073.66;4412233;32;33284;-86
2021/11/19 07:17:14;;;;;;;13.40;7.47;;;;;;;10.49;55.43;101079.62;4424222;32;32912;-86
2021/11/19 07:19:45;;;;;;;12.98;7.72;;;;;;;10.58;55.33;101066.50;4421773;32;32245;-87
2021/11/19 07:22:14;;;;;;;13.30;7.95;;;;;;;10.57;55.55;101072.62;4424504;32;34098;-85
2021/11/19 07:24:42;;;;;;;12.90;7.65;;;;;;;10.27;56.59;101077.19;4424795;32;33990;-88
2021/11/19 07:27:12;;;;;;;13.48;6.97;;;;;;;10.46;56.16;101069.22;4411171;32;32933;-87
2021/11/19 07:29:43;;;;;;;42.55;26.92;;;;;;;10.58;56.05;101073.47;4397422;32;33711;-86
2021/11/19 07:32:26;;;;;;;17.02;10.60;;;;;;;10.86;55.33;101063.63;4387566;32;32894;-88
2021/11/19 07:34:55;;;;;;;15.65;10.18;;;;;;;10.67;55.51;101065.56;4384156;32;35504;-88
2021/11/19 07:37:27;;;;;;;11.18;7.62;;;;;;;10.86;54.79;101064.50;4410234;32;32909;-87
2021/11/19 07:39:58;;;;;;;15.75;7.82;;;;;;;10.88;54.71;101061.00;4417367;32;33508;-87
2021/11/19 07:42:28;;;;;;;12.95;8.18;;;;;;;10.96;54.46;101062.62;4411430;32;32947;-85
2021/11/19 07:45:00;;;;;;;13.30;6.80;;;;;;;11.02;54.41;101067.78;4425345;32;34182;-86
2021/11/19 07:47:31;;;;;;;12.82;7.10;;;;;;;10.81;55.01;101065.41;4405472;32;33455;-86
2021/11/19 07:50:00;;;;;;;16.08;8.95;;;;;;;11.13;54.11;101061.59;4415472;32;32185;-86
2021/11/19 07:52:28;;;;;;;12.45;7.45;;;;;;;10.94;54.53;101061.81;4409167;32;32818;-85
2021/11/19 07:54:58;;;;;;;12.30;7.50;;;;;;;11.11;53.99;101061.59;4424658;32;34591;-86
2021/11/19 07:57:27;;;;;;;18.65;10.35;;;;;;;11.01;54.30;101066.06;4395597;32;32389;-86
2021/11/19 07:59:55;;;;;;;15.38;10.05;;;;;;;10.99;54.63;101075.62;4401194;32;33451;-85
2021/11/19 08:02:24;;;;;;;13.23;7.60;;;;;;;11.16;54.21;101075.44;4417276;32;32958;-86
2021/11/19 08:04:53;;;;;;;13.82;7.93;;;;;;;10.97;54.85;101081.78;4412135;32;33041;-87
2021/11/19 08:07:22;;;;;;;14.43;7.90;;;;;;;11.07;54.62;101078.16;4419767;32;32659;-85
2021/11/19 08:09:55;;;;;;;14.60;8.15;;;;;;;11.02;54.87;101079.94;4424710;32;32115;-87
2021/11/19 08:24:32;;;;;;;;;;;;;;;;;;;;;
2021/11/19 08:28:01;;;;;;;13.98;7.30;;;;;;;11.12;55.02;101078.97;4329732;33;33105;-90
2021/11/19 08:36:17;;;;;;;;;;;;;;;;;;;;;
2021/11/19 08:43:33;;;;;;;15.02;7.78;;;;;;;12.33;52.23;101079.91;4489916;31;301819;-86
2021/11/19 08:46:08;;;;;;;13.02;7.93;;;;;;;12.33;52.23;101079.91;4459101;32;32030;-87
2021/11/19 08:48:38;;;;;;;12.47;8.40;;;;;;;11.46;53.99;101089.00;4458485;32;33706;-87
2021/11/19 08:51:10;;;;;;;19.63;13.27;;;;;;;11.58;53.88;101084.47;4470896;32;33085;-87
2021/11/19 08:53:39;;;;;;;17.62;7.87;;;;;;;11.59;53.69;101078.38;4470861;31;32880;-88
2021/11/19 08:56:09;;;;;;;13.23;7.53;;;;;;;11.65;53.43;101070.47;4458294;32;33760;-89
2021/11/19 08:58:41;;;;;;;13.07;7.00;;;;;;;11.61;53.71;101067.03;4470943;32;33217;-87
2021/11/19 09:01:12;;;;;;;12.10;6.78;;;;;;;11.81;53.47;101068.50;4471190;32;34079;-87
2021/11/19 09:03:41;;;;;;;14.77;7.60;;;;;;;11.90;53.18;101068.38;4457931;32;32760;-86
2021/11/19 09:06:12;;;;;;;14.55;7.53;;;;;;;11.82;53.32;101059.75;4470839;32;32478;-86
2021/11/19 09:08:41;;;;;;;11.15;6.47;;;;;;;11.86;53.43;101054.50;4452427;32;32748;-87
2021/11/19 09:11:11;;;;;;;11.27;6.65;;;;;;;12.01;53.02;101048.19;4452828;32;33590;-87
2021/11/19 09:13:39;;;;;;;11.43;6.43;;;;;;;11.88;53.39;101053.59;4454114;32;34347;-87
2021/11/19 09:16:11;;;;;;;12.18;6.55;;;;;;;11.85;53.57;101057.97;4461058;32;33288;-87
2021/11/19 09:18:46;;;;;;;11.85;6.62;;;;;;;11.82;53.65;101073.69;4440666;32;32877;-87
2021/11/19 09:21:25;;;;;;;20.20;7.43;;;;;;;11.41;54.59;101067.31;4466847;32;33974;-86
2021/11/19 09:24:06;;;;;;;11.45;6.32;;;;;;;11.42;54.80;101065.56;4437495;32;32962;-87
2021/11/19 09:26:53;;;;;;;11.70;7.10;;;;;;;11.66;54.19;101069.56;4450121;32;33024;-86
2021/11/19 09:29:50;;;;;;;13.32;6.87;;;;;;;11.98;53.37;101066.53;4424405;32;32779;-87
2021/11/19 09:32:22;;;;;;;42.33;22.27;;;;;;;11.77;54.10;101046.78;4449894;32;34756;-88
2021/11/19 09:34:55;;;;;;;18.17;10.93;;;;;;;11.76;54.22;101054.66;4450771;32;33264;-88
2021/11/19 09:37:26;;;;;;;18.87;9.23;;;;;;;11.86;53.96;101057.09;4440160;32;32773;-88
2021/11/19 09:39:56;;;;;;;13.88;8.05;;;;;;;12.01;53.52;101048.19;4452497;32;32836;-87
2021/11/19 09:42:34;;;;;;;15.32;7.50;;;;;;;12.02;53.53;101059.53;4439857;32;33657;-87
2021/11/19 09:45:24;;;;;;;19.62;14.30;;;;;;;11.94;53.73;101057.00;4465215;32;33348;-89
2021/11/19 09:48:03;;;;;;;13.93;7.97;;;;;;;12.05;53.50;101048.16;4452541;32;33348;-87
2021/11/19 09:50:46;;;;;;;15.32;8.15;;;;;;;12.11;53.27;101038.47;4465205;32;33958;-87
2021/11/19 09:53:15;;;;;;;11.50;6.97;;;;;;;12.26;52.82;101042.56;4448578;32;33276;-87
2021/11/19 09:55:55;;;;;;;14.10;6.75;;;;;;;12.44;52.41;101035.28;4468756;32;33625;-87
2021/11/19 09:58:49;;;;;;;16.23;8.90;;;;;;;12.24;52.84;101026.03;4426284;32;32278;-86
2021/11/19 10:01:39;;;;;;;13.25;7.25;;;;;;;12.32;52.81;101023.31;4414425;32;33342;-86
2021/11/19 10:04:32;;;;;;;13.20;6.97;;;;;;;12.40;52.63;101021.41;4427147;32;33155;-88
2021/11/19 10:07:03;;;;;;;12.93;6.75;;;;;;;12.68;51.91;101015.66;4439475;32;33502;-86
2021/11/19 10:09:58;;;;;;;17.55;7.50;;;;;;;12.36;52.55;101014.50;4438956;32;33632;-86
2021/11/19 10:12:31;;;;;;;13.55;7.12;;;;;;;12.16;53.24;101004.41;4439201;32;33728;-86
2021/11/19 10:15:09;;;;;;;10.48;6.50;;;;;;;12.69;51.98;101009.53;4427245;32;33992;-86
2021/11/19 10:18:07;;;;;;;10.70;7.05;;;;;;;12.67;51.97;101006.97;4437842;32;33551;-86
2021/11/19 10:21:00;;;;;;;13.07;7.15;;;;;;;12.66;52.25;100996.53;4414553;32;32509;-85
2021/11/19 10:23:51;;;;;;;13.13;7.18;;;;;;;12.85;51.94;101002.25;4428183;32;33162;-86
2021/11/19 10:26:34;;;;;;;12.37;7.57;;;;;;;12.82;51.92;100991.88;4449383;32;33513;-86
2021/11/19 10:29:25;;;;;;;12.75;7.30;;;;;;;12.83;51.99;100991.84;4414150;32;32349;-85
2021/11/19 10:31:58;;;;;;;13.90;7.30;;;;;;;13.08;51.57;100990.47;4439497;32;34092;-85
2021/11/19 10:34:48;;;;;;;12.43;6.95;;;;;;;12.90;52.03;100989.97;4437090;32;33328;-85
2021/11/19 10:37:38;;;;;;;15.50;7.50;;;;;;;12.84;52.34;100984.84;4455114;32;34034;-86
2021/11/19 10:40:32;;;;;;;15.77;8.07;;;;;;;12.85;52.21;100997.88;4458990;32;34539;-86
2021/11/19 10:43:34;;;;;;;11.77;7.22;;;;;;;13.11;51.57;100993.00;4446958;32;32315;-87
2021/11/19 10:46:26;;;;;;;14.02;7.07;;;;;;;13.01;51.78;100994.97;4443165;32;32841;-86
2021/11/19 10:49:14;;;;;;;15.48;7.97;;;;;;;13.01;52.01;100989.72;4441785;32;33143;-86
2021/11/19 10:52:19;;;;;;;13.05;7.10;;;;;;;12.94;52.20;100983.75;4454227;32;32698;-87
2021/11/19 10:55:11;;;;;;;11.25;7.40;;;;;;;13.21;51.71;100984.06;4442875;32;32350;-90
2021/11/19 10:58:37;;;;;;;12.77;7.62;;;;;;;13.19;51.60;100983.25;4469935;32;33669;-88
2021/11/19 11:01:11;;;;;;;12.00;7.80;;;;;;;13.21;51.78;100976.22;4441666;32;33387;-86
2021/11/19 11:03:41;;;;;;;20.37;8.40;;;;;;;13.21;51.66;100991.91;4441577;32;32490;-87
2021/11/19 11:06:15;;;;;;;14.93;7.40;;;;;;;13.28;51.42;100988.28;4453202;32;33775;-86
2021/11/19 11:08:45;;;;;;;13.23;6.32;;;;;;;13.24;51.56;100983.97;4440707;32;34268;-86
2021/11/19 11:11:39;;;;;;;12.70;6.53;;;;;;;13.38;51.38;100980.25;4428891;32;33642;-86
2021/11/19 11:14:08;;;;;;;12.75;7.85;;;;;;;12.91;52.38;100978.59;4441571;32;32881;-86
2021/11/19 11:16:41;;;;;;;11.90;7.07;;;;;;;13.04;52.08;100968.72;4426551;32;33366;-86
2021/11/19 11:19:10;;;;;;;13.62;7.20;;;;;;;13.07;52.09;100978.25;4441474;32;32754;-86
2021/11/19 11:22:01;;;;;;;12.82;7.72;;;;;;;12.88;52.35;100960.34;4441860;32;33707;-85
2021/11/19 11:24:51;;;;;;;12.20;7.55;;;;;;;12.94;52.37;100952.37;4454293;32;33416;-85
2021/11/19 11:27:36;;;;;;;19.83;7.22;;;;;;;13.31;51.48;100935.84;4453921;32;32327;-85
2021/11/19 11:30:11;;;;;;;17.23;6.82;;;;;;;13.30;51.60;100931.50;4441758;32;32726;-85
2021/11/19 11:33:10;;;;;;;21.40;7.95;;;;;;;13.28;51.85;100921.97;4428513;32;33644;-85
2021/11/19 11:35:50;;;;;;;14.15;6.70;;;;;;;13.27;51.90;100923.75;4425803;32;32694;-85
2021/11/19 11:38:24;;;;;;;16.33;7.65;;;;;;;13.34;51.63;100914.84;4438498;32;33081;-85
2021/11/19 11:41:08;;;;;;;13.75;6.75;;;;;;;13.25;51.86;100920.28;4438561;32;32673;-85
2021/11/19 11:43:41;;;;;;;13.40;6.65;;;;;;;13.29;51.77;100918.47;4425800;32;33285;-86
2021/11/19 11:46:18;;;;;;;11.50;6.75;;;;;;;13.43;51.52;100919.03;4438748;32;32793;-86
2021/11/19 11:48:53;;;;;;;17.15;6.87;;;;;;;13.70;50.86;100920.09;4438211;32;32570;-87
2021/11/19 11:51:36;;;;;;;16.40;6.55;;;;;;;13.66;50.81;100915.00;4437687;32;32850;-86
2021/11/19 11:54:14;;;;;;;10.07;6.90;;;;;;;13.76;50.55;100920.84;4438358;32;32987;-86
2021/11/19 11:56:46;;;;;;;10.95;5.90;;;;;;;13.74;50.65;100914.81;4438324;32;33386;-86
2021/11/19 11:59:29;;;;;;;11.25;6.43;;;;;;;13.63;50.83;100910.69;4425954;32;33153;-85
2021/11/19 12:02:45;;;;;;;16.12;7.25;;;;;;;13.77;50.54;100912.09;4421489;32;33783;-87
2021/11/19 12:05:38;;;;;;;10.52;5.87;;;;;;;13.84;50.45;100919.75;4438246;32;34800;-87
2021/11/19 12:08:13;;;;;;;12.10;6.12;;;;;;;14.19;49.64;100914.50;4438450;32;34116;-86
2021/11/19 12:11:19;;;;;;;9.95;6.12;;;;;;;14.12;49.64;100912.91;4426459;32;33191;-85
2021/11/19 12:13:56;;;;;;;10.82;6.60;;;;;;;14.39;49.04;100905.22;4443310;32;32872;-85
2021/11/19 12:17:06;;;;;;;16.98;7.10;;;;;;;14.45;48.89;100900.66;4454462;32;33853;-85
2021/11/19 12:19:56;;;;;;;14.52;6.05;;;;;;;14.32;48.94;100902.75;4467142;32;34201;-86
2021/11/19 12:22:39;;;;;;;10.60;5.68;;;;;;;14.47;48.52;100887.50;4453794;32;33220;-86
2021/11/19 12:25:45;;;;;;;11.32;5.43;;;;;;;14.19;49.30;100886.50;4440699;32;33024;-86
2021/11/19 12:28:22;;;;;;;12.85;5.45;;;;;;;14.14;49.43;100879.69;4441111;32;32982;-86
2021/11/19 12:31:00;;;;;;;10.18;5.47;;;;;;;14.33;48.97;100873.03;4440622;32;32652;-86
2021/11/19 12:33:36;;;;;;;13.32;5.62;;;;;;;14.19;49.35;100869.94;4448463;32;32643;-86